sensor_id;sensor_type;location;lat;lon;timestamp;P1;durP1;ratioP1;P2;durP2;ratioP2
59685;SDS011;45554;51.096;16.976;2022-09-27T00:04:19;19.60;;;14.30;;
59685;SDS011;45554;51.096;16.976;2022-09-27T00:06:52;18.00;;;13.30;;
59685;SDS011;45554;51.096;16.976;2022-09-27T00:09:28;18.60;;;13.40;;
59685;SDS011;45554;51.096;16.976;2022-09-27T00:12:04;19.60;;;12.70;;
59685;SDS011;45554;51.096;16.976;2022-09-27T00:14:47;18.40;;;12.30;;
59685;SDS011;45554;51.096;16.976;2022-09-27T00:17:20;18.60;;;12.70;;
59685;SDS011;45554;51.096;16.976;2022-09-27T00:20:02;20.50;;;14.30;;
59685;SDS011;45554;51.096;16.976;2022-09-27T00:23:00;18.70;;;13.50;;
59685;SDS011;45554;51.096;16.976;2022-09-27T00:25:59;18.40;;;14.50;;
59685;SDS011;45554;51.096;16.976;2022-09-27T00:28:32;18.90;;;14.50;;
59685;SDS011;45554;51.096;16.976;2022-09-27T00:31:02;20.20;;;14.60;;
59685;SDS011;45554;51.096;16.976;2022-09-27T00:33:37;20.10;;;13.80;;
59685;SDS011;45554;51.096;16.976;2022-09-27T00:36:22;15.90;;;11.60;;
59685;SDS011;45554;51.096;16.976;2022-09-27T00:39:03;17.70;;;12.60;;
59685;SDS011;45554;51.096;16.976;2022-09-27T00:41:35;18.30;;;12.50;;
59685;SDS011;45554;51.096;16.976;2022-09-27T00:47:26;16.10;;;11.60;;
59685;SDS011;45554;51.096;16.976;2022-09-27T00:50:04;15.10;;;10.70;;
59685;SDS011;45554;51.096;16.976;2022-09-27T00:53:11;14.90;;;10.10;;
59685;SDS011;45554;51.096;16.976;2022-09-27T00:55:52;15.60;;;10.80;;
59685;SDS011;45554;51.096;16.976;2022-09-27T00:58:38;17.60;;;11.90;;
59685;SDS011;45554;51.096;16.976;2022-09-27T01:01:18;16.00;;;11.20;;
59685;SDS011;45554;51.096;16.976;2022-09-27T01:04:06;15.30;;;11.20;;
59685;SDS011;45554;51.096;16.976;2022-09-27T01:07:00;16.30;;;11.40;;
59685;SDS011;45554;51.096;16.976;2022-09-27T01:09:39;16.60;;;10.50;;
59685;SDS011;45554;51.096;16.976;2022-09-27T01:15:44;16.70;;;11.30;;
59685;SDS011;45554;51.096;16.976;2022-09-27T01:27:59;16.60;;;11.50;;
59685;SDS011;45554;51.096;16.976;2022-09-27T01:30:19;17.00;;;11.60;;
59685;SDS011;45554;51.096;16.976;2022-09-27T01:32:57;18.70;;;10.90;;
59685;SDS011;45554;51.096;16.976;2022-09-27T01:35:53;16.30;;;11.40;;
59685;SDS011;45554;51.096;16.976;2022-09-27T01:42:07;22.60;;;18.50;;
59685;SDS011;45554;51.096;16.976;2022-09-27T01:44:57;18.40;;;12.70;;
59685;SDS011;45554;51.096;16.976;2022-09-27T01:47:58;19.60;;;11.90;;
59685;SDS011;45554;51.096;16.976;2022-09-27T01:53:43;17.80;;;12.90;;
59685;SDS011;45554;51.096;16.976;2022-09-27T01:56:50;19.30;;;14.00;;
59685;SDS011;45554;51.096;16.976;2022-09-27T01:59:49;19.80;;;13.90;;
59685;SDS011;45554;51.096;16.976;2022-09-27T02:02:46;20.00;;;13.60;;
59685;SDS011;45554;51.096;16.976;2022-09-27T02:05:29;18.50;;;12.10;;
59685;SDS011;45554;51.096;16.976;2022-09-27T02:08:20;21.50;;;13.50;;
59685;SDS011;45554;51.096;16.976;2022-09-27T02:11:16;20.60;;;14.50;;
59685;SDS011;45554;51.096;16.976;2022-09-27T02:14:56;20.30;;;14.10;;
59685;SDS011;45554;51.096;16.976;2022-09-27T02:23:57;20.30;;;13.60;;
59685;SDS011;45554;51.096;16.976;2022-09-27T02:26:23;20.30;;;12.80;;
59685;SDS011;45554;51.096;16.976;2022-09-27T02:29:19;18.00;;;13.70;;
59685;SDS011;45554;51.096;16.976;2022-09-27T02:32:08;20.20;;;13.90;;
59685;SDS011;45554;51.096;16.976;2022-09-27T02:34:36;19.00;;;14.30;;
59685;SDS011;45554;51.096;16.976;2022-09-27T02:37:19;20.70;;;13.70;;
59685;SDS011;45554;51.096;16.976;2022-09-27T02:39:50;18.70;;;13.50;;
59685;SDS011;45554;51.096;16.976;2022-09-27T02:42:19;17.80;;;13.30;;
59685;SDS011;45554;51.096;16.976;2022-09-27T02:45:02;18.60;;;13.20;;
59685;SDS011;45554;51.096;16.976;2022-09-27T02:54:59;17.00;;;12.20;;
59685;SDS011;45554;51.096;16.976;2022-09-27T03:01:30;17.20;;;12.20;;
59685;SDS011;45554;51.096;16.976;2022-09-27T03:06:53;20.00;;;12.50;;
59685;SDS011;45554;51.096;16.976;2022-09-27T03:09:42;18.60;;;12.50;;
59685;SDS011;45554;51.096;16.976;2022-09-27T03:12:18;19.00;;;11.50;;
59685;SDS011;45554;51.096;16.976;2022-09-27T03:14:57;17.00;;;12.00;;
59685;SDS011;45554;51.096;16.976;2022-09-27T03:17:56;18.30;;;12.50;;
59685;SDS011;45554;51.096;16.976;2022-09-27T03:20:54;18.60;;;12.50;;
59685;SDS011;45554;51.096;16.976;2022-09-27T03:23:25;19.60;;;13.60;;
59685;SDS011;45554;51.096;16.976;2022-09-27T03:25:57;16.10;;;11.90;;
59685;SDS011;45554;51.096;16.976;2022-09-27T03:28:39;18.00;;;12.30;;
59685;SDS011;45554;51.096;16.976;2022-09-27T03:31:11;19.90;;;12.80;;
59685;SDS011;45554;51.096;16.976;2022-09-27T03:34:14;18.70;;;14.20;;
59685;SDS011;45554;51.096;16.976;2022-09-27T03:36:45;18.70;;;13.50;;
59685;SDS011;45554;51.096;16.976;2022-09-27T03:39:28;17.80;;;13.00;;
59685;SDS011;45554;51.096;16.976;2022-09-27T03:42:12;21.70;;;13.10;;
59685;SDS011;45554;51.096;16.976;2022-09-27T03:44:50;19.20;;;11.40;;
59685;SDS011;45554;51.096;16.976;2022-09-27T03:47:28;19.20;;;12.30;;
59685;SDS011;45554;51.096;16.976;2022-09-27T03:49:58;16.50;;;11.50;;
59685;SDS011;45554;51.096;16.976;2022-09-27T03:52:46;17.20;;;13.00;;
59685;SDS011;45554;51.096;16.976;2022-09-27T03:55:18;18.00;;;12.10;;
59685;SDS011;45554;51.096;16.976;2022-09-27T03:57:48;20.50;;;12.90;;
59685;SDS011;45554;51.096;16.976;2022-09-27T04:00:24;17.70;;;11.20;;
59685;SDS011;45554;51.096;16.976;2022-09-27T04:02:59;17.00;;;10.90;;
59685;SDS011;45554;51.096;16.976;2022-09-27T04:05:55;15.50;;;11.20;;
59685;SDS011;45554;51.096;16.976;2022-09-27T04:08:35;16.70;;;12.40;;
59685;SDS011;45554;51.096;16.976;2022-09-27T04:11:08;17.10;;;12.30;;
59685;SDS011;45554;51.096;16.976;2022-09-27T04:13:37;18.00;;;12.60;;
59685;SDS011;45554;51.096;16.976;2022-09-27T04:16:05;17.80;;;12.80;;
59685;SDS011;45554;51.096;16.976;2022-09-27T04:19:08;19.30;;;11.70;;
59685;SDS011;45554;51.096;16.976;2022-09-27T04:21:58;18.10;;;11.10;;
59685;SDS011;45554;51.096;16.976;2022-09-27T04:24:28;16.40;;;11.10;;
59685;SDS011;45554;51.096;16.976;2022-09-27T04:27:15;17.30;;;11.00;;
59685;SDS011;45554;51.096;16.976;2022-09-27T04:29:50;15.30;;;11.50;;
59685;SDS011;45554;51.096;16.976;2022-09-27T04:32:44;19.20;;;11.20;;
59685;SDS011;45554;51.096;16.976;2022-09-27T04:35:37;16.00;;;10.30;;
59685;SDS011;45554;51.096;16.976;2022-09-27T04:38:33;16.10;;;10.00;;
59685;SDS011;45554;51.096;16.976;2022-09-27T04:41:02;16.90;;;11.00;;
59685;SDS011;45554;51.096;16.976;2022-09-27T04:43:33;16.10;;;10.30;;
59685;SDS011;45554;51.096;16.976;2022-09-27T04:46:09;16.20;;;11.00;;
59685;SDS011;45554;51.096;16.976;2022-09-27T04:48:38;16.40;;;11.20;;
59685;SDS011;45554;51.096;16.976;2022-09-27T04:51:06;20.10;;;13.00;;
59685;SDS011;45554;51.096;16.976;2022-09-27T04:53:49;15.20;;;10.60;;
59685;SDS011;45554;51.096;16.976;2022-09-27T04:56:21;13.90;;;10.30;;
59685;SDS011;45554;51.096;16.976;2022-09-27T04:58:59;18.90;;;12.00;;
59685;SDS011;45554;51.096;16.976;2022-09-27T05:01:29;16.10;;;11.50;;
59685;SDS011;45554;51.096;16.976;2022-09-27T05:04:19;15.00;;;11.50;;
59685;SDS011;45554;51.096;16.976;2022-09-27T05:06:49;15.10;;;11.30;;
59685;SDS011;45554;51.096;16.976;2022-09-27T05:09:28;15.30;;;10.50;;
59685;SDS011;45554;51.096;16.976;2022-09-27T05:11:59;14.80;;;10.80;;
59685;SDS011;45554;51.096;16.976;2022-09-27T05:14:42;14.40;;;10.60;;
59685;SDS011;45554;51.096;16.976;2022-09-27T05:17:30;14.10;;;10.20;;
59685;SDS011;45554;51.096;16.976;2022-09-27T05:20:19;15.90;;;11.30;;
59685;SDS011;45554;51.096;16.976;2022-09-27T05:23:21;17.00;;;12.30;;
59685;SDS011;45554;51.096;16.976;2022-09-27T05:25:49;15.90;;;11.60;;
59685;SDS011;45554;51.096;16.976;2022-09-27T05:28:22;16.20;;;11.60;;
59685;SDS011;45554;51.096;16.976;2022-09-27T05:30:51;15.30;;;10.00;;
59685;SDS011;45554;51.096;16.976;2022-09-27T05:33:29;16.90;;;10.70;;
59685;SDS011;45554;51.096;16.976;2022-09-27T05:36:16;17.20;;;11.00;;
59685;SDS011;45554;51.096;16.976;2022-09-27T05:38:53;15.70;;;11.20;;
59685;SDS011;45554;51.096;16.976;2022-09-27T05:41:22;17.00;;;11.80;;
59685;SDS011;45554;51.096;16.976;2022-09-27T05:43:52;17.00;;;10.40;;
59685;SDS011;45554;51.096;16.976;2022-09-27T05:46:24;15.00;;;10.70;;
59685;SDS011;45554;51.096;16.976;2022-09-27T05:48:52;16.40;;;10.70;;
59685;SDS011;45554;51.096;16.976;2022-09-27T05:51:20;15.80;;;9.70;;
59685;SDS011;45554;51.096;16.976;2022-09-27T05:53:48;18.20;;;10.70;;
59685;SDS011;45554;51.096;16.976;2022-09-27T05:56:28;15.80;;;10.70;;
59685;SDS011;45554;51.096;16.976;2022-09-27T05:59:23;14.70;;;11.00;;
59685;SDS011;45554;51.096;16.976;2022-09-27T06:02:20;16.40;;;10.40;;
59685;SDS011;45554;51.096;16.976;2022-09-27T06:05:08;15.40;;;11.00;;
59685;SDS011;45554;51.096;16.976;2022-09-27T06:07:57;15.30;;;10.80;;
59685;SDS011;45554;51.096;16.976;2022-09-27T06:10:37;12.00;;;7.80;;
59685;SDS011;45554;51.096;16.976;2022-09-27T06:13:09;14.80;;;9.40;;
59685;SDS011;45554;51.096;16.976;2022-09-27T06:15:43;14.00;;;9.80;;
59685;SDS011;45554;51.096;16.976;2022-09-27T06:18:26;14.80;;;10.10;;
59685;SDS011;45554;51.096;16.976;2022-09-27T06:21:03;12.70;;;9.70;;
59685;SDS011;45554;51.096;16.976;2022-09-27T06:23:46;14.60;;;10.20;;
59685;SDS011;45554;51.096;16.976;2022-09-27T06:26:24;14.60;;;9.20;;
59685;SDS011;45554;51.096;16.976;2022-09-27T06:29:17;12.90;;;8.30;;
59685;SDS011;45554;51.096;16.976;2022-09-27T06:31:55;15.50;;;9.80;;
59685;SDS011;45554;51.096;16.976;2022-09-27T06:34:54;12.80;;;9.50;;
59685;SDS011;45554;51.096;16.976;2022-09-27T06:37:36;13.50;;;9.30;;
59685;SDS011;45554;51.096;16.976;2022-09-27T06:40:10;14.50;;;9.50;;
59685;SDS011;45554;51.096;16.976;2022-09-27T06:43:08;16.00;;;9.20;;
59685;SDS011;45554;51.096;16.976;2022-09-27T06:46:06;14.90;;;8.90;;
59685;SDS011;45554;51.096;16.976;2022-09-27T06:48:50;13.90;;;9.10;;
59685;SDS011;45554;51.096;16.976;2022-09-27T06:51:30;15.20;;;8.90;;
59685;SDS011;45554;51.096;16.976;2022-09-27T06:54:05;13.20;;;9.00;;
59685;SDS011;45554;51.096;16.976;2022-09-27T06:56:34;15.50;;;9.80;;
59685;SDS011;45554;51.096;16.976;2022-09-27T06:59:07;15.60;;;9.40;;
59685;SDS011;45554;51.096;16.976;2022-09-27T07:02:13;14.00;;;9.50;;
59685;SDS011;45554;51.096;16.976;2022-09-27T07:05:01;14.50;;;9.20;;
59685;SDS011;45554;51.096;16.976;2022-09-27T07:07:59;16.40;;;10.30;;
59685;SDS011;45554;51.096;16.976;2022-09-27T07:10:34;20.00;;;10.10;;
59685;SDS011;45554;51.096;16.976;2022-09-27T07:13:07;15.20;;;10.10;;
59685;SDS011;45554;51.096;16.976;2022-09-27T07:15:40;14.80;;;9.80;;
59685;SDS011;45554;51.096;16.976;2022-09-27T07:18:13;15.20;;;9.10;;
59685;SDS011;45554;51.096;16.976;2022-09-27T07:23:10;13.00;;;9.00;;
59685;SDS011;45554;51.096;16.976;2022-09-27T07:25:40;16.30;;;9.50;;
59685;SDS011;45554;51.096;16.976;2022-09-27T07:28:20;16.00;;;10.10;;
59685;SDS011;45554;51.096;16.976;2022-09-27T07:30:53;15.20;;;9.40;;
59685;SDS011;45554;51.096;16.976;2022-09-27T07:33:23;15.60;;;9.20;;
59685;SDS011;45554;51.096;16.976;2022-09-27T07:35:53;16.60;;;9.30;;
59685;SDS011;45554;51.096;16.976;2022-09-27T07:38:21;16.20;;;9.10;;
59685;SDS011;45554;51.096;16.976;2022-09-27T07:43:18;14.30;;;9.40;;
59685;SDS011;45554;51.096;16.976;2022-09-27T07:45:48;16.10;;;10.20;;
59685;SDS011;45554;51.096;16.976;2022-09-27T07:48:35;18.50;;;10.70;;
59685;SDS011;45554;51.096;16.976;2022-09-27T07:51:16;16.00;;;9.80;;
59685;SDS011;45554;51.096;16.976;2022-09-27T07:53:47;14.30;;;9.00;;
59685;SDS011;45554;51.096;16.976;2022-09-27T07:56:38;15.50;;;9.90;;
59685;SDS011;45554;51.096;16.976;2022-09-27T07:59:23;16.50;;;9.50;;
59685;SDS011;45554;51.096;16.976;2022-09-27T08:01:52;15.30;;;10.50;;
59685;SDS011;45554;51.096;16.976;2022-09-27T08:04:20;16.60;;;10.00;;
59685;SDS011;45554;51.096;16.976;2022-09-27T08:06:49;14.40;;;9.70;;
59685;SDS011;45554;51.096;16.976;2022-09-27T08:09:17;18.40;;;10.00;;
59685;SDS011;45554;51.096;16.976;2022-09-27T08:11:47;12.60;;;9.30;;
59685;SDS011;45554;51.096;16.976;2022-09-27T08:14:15;12.40;;;9.00;;
59685;SDS011;45554;51.096;16.976;2022-09-27T08:16:47;13.40;;;9.40;;
59685;SDS011;45554;51.096;16.976;2022-09-27T08:19:32;13.80;;;9.20;;
59685;SDS011;45554;51.096;16.976;2022-09-27T08:22:14;13.70;;;9.10;;
59685;SDS011;45554;51.096;16.976;2022-09-27T08:24:50;14.50;;;10.00;;
59685;SDS011;45554;51.096;16.976;2022-09-27T08:27:41;13.90;;;8.20;;
59685;SDS011;45554;51.096;16.976;2022-09-27T08:30:41;13.70;;;8.90;;
59685;SDS011;45554;51.096;16.976;2022-09-27T08:33:10;13.90;;;8.90;;
59685;SDS011;45554;51.096;16.976;2022-09-27T08:35:41;14.40;;;9.10;;
59685;SDS011;45554;51.096;16.976;2022-09-27T08:38:09;12.80;;;9.30;;
59685;SDS011;45554;51.096;16.976;2022-09-27T08:46:40;12.90;;;8.80;;
59685;SDS011;45554;51.096;16.976;2022-09-27T08:52:24;13.50;;;8.40;;
59685;SDS011;45554;51.096;16.976;2022-09-27T08:55:21;13.30;;;9.30;;
59685;SDS011;45554;51.096;16.976;2022-09-27T08:57:59;14.10;;;9.70;;
59685;SDS011;45554;51.096;16.976;2022-09-27T09:00:30;15.00;;;9.30;;
59685;SDS011;45554;51.096;16.976;2022-09-27T09:03:00;13.80;;;10.10;;
59685;SDS011;45554;51.096;16.976;2022-09-27T09:05:34;14.60;;;9.20;;
59685;SDS011;45554;51.096;16.976;2022-09-27T09:08:10;12.00;;;8.50;;
59685;SDS011;45554;51.096;16.976;2022-09-27T09:19:41;14.80;;;9.50;;
59685;SDS011;45554;51.096;16.976;2022-09-27T09:25:35;13.70;;;8.60;;
59685;SDS011;45554;51.096;16.976;2022-09-27T09:37:16;14.50;;;10.60;;
59685;SDS011;45554;51.096;16.976;2022-09-27T09:40:04;15.50;;;10.50;;
59685;SDS011;45554;51.096;16.976;2022-09-27T09:42:38;14.50;;;10.60;;
59685;SDS011;45554;51.096;16.976;2022-09-27T09:48:26;14.70;;;9.70;;
59685;SDS011;45554;51.096;16.976;2022-09-27T09:51:00;15.50;;;9.50;;
59685;SDS011;45554;51.096;16.976;2022-09-27T09:53:51;14.20;;;9.90;;
59685;SDS011;45554;51.096;16.976;2022-09-27T09:56:30;13.20;;;9.60;;
59685;SDS011;45554;51.096;16.976;2022-09-27T09:59:11;14.50;;;8.60;;
59685;SDS011;45554;51.096;16.976;2022-09-27T10:01:59;11.00;;;7.80;;
59685;SDS011;45554;51.096;16.976;2022-09-27T10:04:45;12.50;;;9.10;;
59685;SDS011;45554;51.096;16.976;2022-09-27T10:07:15;11.50;;;8.10;;
59685;SDS011;45554;51.096;16.976;2022-09-27T10:09:50;11.80;;;8.60;;
59685;SDS011;45554;51.096;16.976;2022-09-27T10:12:39;12.10;;;8.40;;
59685;SDS011;45554;51.096;16.976;2022-09-27T10:15:11;12.10;;;8.10;;
59685;SDS011;45554;51.096;16.976;2022-09-27T10:17:45;14.60;;;8.30;;
59685;SDS011;45554;51.096;16.976;2022-09-27T10:22:58;11.50;;;7.90;;
59685;SDS011;45554;51.096;16.976;2022-09-27T10:25:50;14.20;;;8.90;;
59685;SDS011;45554;51.096;16.976;2022-09-27T10:28:48;13.20;;;8.40;;
59685;SDS011;45554;51.096;16.976;2022-09-27T10:31:23;11.40;;;7.30;;
59685;SDS011;45554;51.096;16.976;2022-09-27T10:34:01;11.50;;;7.90;;
59685;SDS011;45554;51.096;16.976;2022-09-27T10:36:39;12.10;;;7.60;;
59685;SDS011;45554;51.096;16.976;2022-09-27T10:39:09;11.40;;;8.20;;
59685;SDS011;45554;51.096;16.976;2022-09-27T10:41:48;10.10;;;7.30;;
59685;SDS011;45554;51.096;16.976;2022-09-27T10:44:27;11.20;;;8.20;;
59685;SDS011;45554;51.096;16.976;2022-09-27T10:47:08;10.70;;;7.70;;
59685;SDS011;45554;51.096;16.976;2022-09-27T10:50:00;11.00;;;8.10;;
59685;SDS011;45554;51.096;16.976;2022-09-27T10:52:41;10.30;;;7.80;;
59685;SDS011;45554;51.096;16.976;2022-09-27T10:55:23;13.20;;;7.80;;
59685;SDS011;45554;51.096;16.976;2022-09-27T10:57:54;13.00;;;7.20;;
59685;SDS011;45554;51.096;16.976;2022-09-27T11:00:30;12.70;;;7.50;;
59685;SDS011;45554;51.096;16.976;2022-09-27T11:03:15;15.00;;;8.50;;
59685;SDS011;45554;51.096;16.976;2022-09-27T11:08:50;13.20;;;8.30;;
59685;SDS011;45554;51.096;16.976;2022-09-27T11:11:26;12.00;;;8.10;;
59685;SDS011;45554;51.096;16.976;2022-09-27T11:13:59;13.60;;;8.40;;
59685;SDS011;45554;51.096;16.976;2022-09-27T11:16:43;17.70;;;8.50;;
59685;SDS011;45554;51.096;16.976;2022-09-27T11:28:07;13.10;;;8.00;;
59685;SDS011;45554;51.096;16.976;2022-09-27T11:34:04;12.90;;;8.90;;
59685;SDS011;45554;51.096;16.976;2022-09-27T11:50:42;13.60;;;7.90;;
59685;SDS011;45554;51.096;16.976;2022-09-27T11:53:24;12.60;;;7.80;;
59685;SDS011;45554;51.096;16.976;2022-09-27T11:59:29;10.10;;;7.30;;
59685;SDS011;45554;51.096;16.976;2022-09-27T12:17:07;8.10;;;6.00;;
59685;SDS011;45554;51.096;16.976;2022-09-27T12:19:45;9.60;;;6.00;;
59685;SDS011;45554;51.096;16.976;2022-09-27T12:22:30;8.90;;;6.20;;
59685;SDS011;45554;51.096;16.976;2022-09-27T12:25:27;9.60;;;6.40;;
59685;SDS011;45554;51.096;16.976;2022-09-27T12:30:36;8.70;;;6.20;;
59685;SDS011;45554;51.096;16.976;2022-09-27T12:33:15;10.40;;;6.70;;
59685;SDS011;45554;51.096;16.976;2022-09-27T12:35:53;9.20;;;5.90;;
59685;SDS011;45554;51.096;16.976;2022-09-27T12:38:59;9.40;;;5.60;;
59685;SDS011;45554;51.096;16.976;2022-09-27T12:41:31;7.70;;;5.10;;
59685;SDS011;45554;51.096;16.976;2022-09-27T12:44:18;10.50;;;5.50;;
59685;SDS011;45554;51.096;16.976;2022-09-27T12:47:05;7.80;;;5.20;;
59685;SDS011;45554;51.096;16.976;2022-09-27T12:49:58;7.90;;;5.00;;
59685;SDS011;45554;51.096;16.976;2022-09-27T12:52:37;8.20;;;5.50;;
59685;SDS011;45554;51.096;16.976;2022-09-27T13:01:06;9.00;;;5.30;;
59685;SDS011;45554;51.096;16.976;2022-09-27T13:12:59;8.60;;;5.80;;
59685;SDS011;45554;51.096;16.976;2022-09-27T13:15:31;14.80;;;7.50;;
59685;SDS011;45554;51.096;16.976;2022-09-27T13:18:06;9.10;;;6.20;;
59685;SDS011;45554;51.096;16.976;2022-09-27T13:20:54;9.70;;;6.20;;
59685;SDS011;45554;51.096;16.976;2022-09-27T13:34:36;9.10;;;5.10;;
59685;SDS011;45554;51.096;16.976;2022-09-27T13:40:22;9.20;;;4.80;;
59685;SDS011;45554;51.096;16.976;2022-09-27T13:46:24;10.30;;;7.60;;
59685;SDS011;45554;51.096;16.976;2022-09-27T13:49:00;9.90;;;6.40;;
59685;SDS011;45554;51.096;16.976;2022-09-27T13:51:57;7.90;;;5.00;;
59685;SDS011;45554;51.096;16.976;2022-09-27T14:00:27;8.00;;;5.10;;
59685;SDS011;45554;51.096;16.976;2022-09-27T14:05:50;9.80;;;5.20;;
59685;SDS011;45554;51.096;16.976;2022-09-27T14:08:28;7.40;;;5.00;;
59685;SDS011;45554;51.096;16.976;2022-09-27T14:11:01;8.20;;;5.50;;
59685;SDS011;45554;51.096;16.976;2022-09-27T14:13:32;9.60;;;5.20;;
59685;SDS011;45554;51.096;16.976;2022-09-27T14:16:05;7.50;;;4.70;;
59685;SDS011;45554;51.096;16.976;2022-09-27T14:18:41;8.50;;;4.90;;
59685;SDS011;45554;51.096;16.976;2022-09-27T14:21:26;8.70;;;5.00;;
59685;SDS011;45554;51.096;16.976;2022-09-27T14:24:32;9.20;;;5.70;;
59685;SDS011;45554;51.096;16.976;2022-09-27T14:30:09;7.20;;;4.50;;
59685;SDS011;45554;51.096;16.976;2022-09-27T14:32:49;7.60;;;4.50;;
59685;SDS011;45554;51.096;16.976;2022-09-27T14:35:44;8.80;;;4.50;;
59685;SDS011;45554;51.096;16.976;2022-09-27T14:38:35;7.40;;;4.40;;
59685;SDS011;45554;51.096;16.976;2022-09-27T14:41:16;7.80;;;4.80;;
59685;SDS011;45554;51.096;16.976;2022-09-27T14:46:24;8.00;;;3.90;;
59685;SDS011;45554;51.096;16.976;2022-09-27T14:48:57;7.50;;;4.30;;
59685;SDS011;45554;51.096;16.976;2022-09-27T14:51:40;7.60;;;4.40;;
59685;SDS011;45554;51.096;16.976;2022-09-27T14:54:17;6.90;;;3.60;;
59685;SDS011;45554;51.096;16.976;2022-09-27T14:56:48;6.50;;;3.40;;
59685;SDS011;45554;51.096;16.976;2022-09-27T15:01:49;6.30;;;3.40;;
59685;SDS011;45554;51.096;16.976;2022-09-27T15:06:48;6.30;;;2.90;;
59685;SDS011;45554;51.096;16.976;2022-09-27T15:09:18;5.30;;;2.90;;
59685;SDS011;45554;51.096;16.976;2022-09-27T15:11:49;5.40;;;3.00;;
59685;SDS011;45554;51.096;16.976;2022-09-27T15:14:21;5.70;;;2.70;;
59685;SDS011;45554;51.096;16.976;2022-09-27T15:16:51;5.20;;;2.70;;
59685;SDS011;45554;51.096;16.976;2022-09-27T15:19:23;5.80;;;2.80;;
59685;SDS011;45554;51.096;16.976;2022-09-27T15:21:54;5.70;;;3.30;;
59685;SDS011;45554;51.096;16.976;2022-09-27T15:27:19;5.70;;;2.60;;
59685;SDS011;45554;51.096;16.976;2022-09-27T15:30:28;4.50;;;2.40;;
59685;SDS011;45554;51.096;16.976;2022-09-27T15:33:16;6.00;;;2.70;;
59685;SDS011;45554;51.096;16.976;2022-09-27T15:35:58;5.10;;;2.50;;
59685;SDS011;45554;51.096;16.976;2022-09-27T15:38:32;6.90;;;2.90;;
59685;SDS011;45554;51.096;16.976;2022-09-27T15:41:21;6.40;;;2.70;;
59685;SDS011;45554;51.096;16.976;2022-09-27T15:43:51;6.80;;;2.60;;
59685;SDS011;45554;51.096;16.976;2022-09-27T15:49:13;5.10;;;2.60;;
59685;SDS011;45554;51.096;16.976;2022-09-27T15:51:53;5.50;;;2.40;;
59685;SDS011;45554;51.096;16.976;2022-09-27T15:54:28;5.20;;;2.20;;
59685;SDS011;45554;51.096;16.976;2022-09-27T15:57:03;6.30;;;2.40;;
59685;SDS011;45554;51.096;16.976;2022-09-27T15:59:33;5.10;;;2.30;;
59685;SDS011;45554;51.096;16.976;2022-09-27T16:02:13;5.70;;;2.70;;
59685;SDS011;45554;51.096;16.976;2022-09-27T16:04:46;7.80;;;2.70;;
59685;SDS011;45554;51.096;16.976;2022-09-27T16:07:14;6.30;;;3.10;;
59685;SDS011;45554;51.096;16.976;2022-09-27T16:09:45;6.10;;;3.10;;
59685;SDS011;45554;51.096;16.976;2022-09-27T16:12:16;8.00;;;3.00;;
59685;SDS011;45554;51.096;16.976;2022-09-27T16:14:44;3.80;;;1.70;;
59685;SDS011;45554;51.096;16.976;2022-09-27T16:17:12;3.70;;;1.40;;
59685;SDS011;45554;51.096;16.976;2022-09-27T16:19:41;3.20;;;1.20;;
59685;SDS011;45554;51.096;16.976;2022-09-27T16:22:09;1.20;;;0.70;;
59685;SDS011;45554;51.096;16.976;2022-09-27T16:24:38;1.50;;;0.80;;
59685;SDS011;45554;51.096;16.976;2022-09-27T16:27:06;3.20;;;0.60;;
59685;SDS011;45554;51.096;16.976;2022-09-27T16:29:41;2.30;;;0.60;;
59685;SDS011;45554;51.096;16.976;2022-09-27T16:32:16;1.30;;;0.60;;
59685;SDS011;45554;51.096;16.976;2022-09-27T16:34:47;1.20;;;0.70;;
59685;SDS011;45554;51.096;16.976;2022-09-27T16:37:45;0.80;;;0.50;;
59685;SDS011;45554;51.096;16.976;2022-09-27T16:40:15;3.10;;;0.80;;
59685;SDS011;45554;51.096;16.976;2022-09-27T16:43:10;1.30;;;0.70;;
59685;SDS011;45554;51.096;16.976;2022-09-27T16:45:45;1.20;;;0.90;;
59685;SDS011;45554;51.096;16.976;2022-09-27T16:48:13;2.00;;;0.90;;
59685;SDS011;45554;51.096;16.976;2022-09-27T16:50:47;2.60;;;1.10;;
59685;SDS011;45554;51.096;16.976;2022-09-27T16:53:48;4.00;;;1.40;;
59685;SDS011;45554;51.096;16.976;2022-09-27T16:56:21;6.40;;;1.50;;
59685;SDS011;45554;51.096;16.976;2022-09-27T16:58:53;5.00;;;1.70;;
59685;SDS011;45554;51.096;16.976;2022-09-27T17:01:24;5.30;;;2.40;;
59685;SDS011;45554;51.096;16.976;2022-09-27T17:03:56;6.00;;;2.20;;
59685;SDS011;45554;51.096;16.976;2022-09-27T17:06:26;4.30;;;1.70;;
59685;SDS011;45554;51.096;16.976;2022-09-27T17:09:00;6.80;;;3.00;;
59685;SDS011;45554;51.096;16.976;2022-09-27T17:11:30;9.10;;;3.30;;
59685;SDS011;45554;51.096;16.976;2022-09-27T17:13:58;5.50;;;2.00;;
59685;SDS011;45554;51.096;16.976;2022-09-27T17:16:35;10.60;;;9.90;;
59685;SDS011;45554;51.096;16.976;2022-09-27T17:19:04;2.30;;;0.90;;
59685;SDS011;45554;51.096;16.976;2022-09-27T17:21:55;3.40;;;1.00;;
59685;SDS011;45554;51.096;16.976;2022-09-27T17:24:38;3.40;;;1.30;;
59685;SDS011;45554;51.096;16.976;2022-09-27T17:27:30;3.70;;;1.50;;
59685;SDS011;45554;51.096;16.976;2022-09-27T17:30:04;3.90;;;1.70;;
59685;SDS011;45554;51.096;16.976;2022-09-27T17:32:33;5.20;;;2.20;;
59685;SDS011;45554;51.096;16.976;2022-09-27T17:35:05;5.00;;;2.00;;
59685;SDS011;45554;51.096;16.976;2022-09-27T17:37:36;4.70;;;2.40;;
59685;SDS011;45554;51.096;16.976;2022-09-27T17:40:07;4.90;;;1.90;;
59685;SDS011;45554;51.096;16.976;2022-09-27T17:42:38;3.90;;;1.70;;
59685;SDS011;45554;51.096;16.976;2022-09-27T17:45:06;5.10;;;1.80;;
59685;SDS011;45554;51.096;16.976;2022-09-27T17:47:36;3.70;;;2.00;;
59685;SDS011;45554;51.096;16.976;2022-09-27T17:50:26;4.70;;;1.70;;
59685;SDS011;45554;51.096;16.976;2022-09-27T17:52:58;3.30;;;1.70;;
59685;SDS011;45554;51.096;16.976;2022-09-27T17:55:35;5.30;;;1.70;;
59685;SDS011;45554;51.096;16.976;2022-09-27T17:58:04;3.80;;;1.70;;
59685;SDS011;45554;51.096;16.976;2022-09-27T18:00:36;4.10;;;1.90;;
59685;SDS011;45554;51.096;16.976;2022-09-27T18:05:38;5.60;;;1.90;;
59685;SDS011;45554;51.096;16.976;2022-09-27T18:08:09;4.60;;;1.80;;
59685;SDS011;45554;51.096;16.976;2022-09-27T18:10:40;6.90;;;2.20;;
59685;SDS011;45554;51.096;16.976;2022-09-27T18:13:09;6.90;;;2.40;;
59685;SDS011;45554;51.096;16.976;2022-09-27T18:15:37;7.90;;;3.00;;
59685;SDS011;45554;51.096;16.976;2022-09-27T18:18:08;6.60;;;2.70;;
59685;SDS011;45554;51.096;16.976;2022-09-27T18:20:37;6.30;;;2.70;;
59685;SDS011;45554;51.096;16.976;2022-09-27T18:23:08;7.70;;;3.00;;
59685;SDS011;45554;51.096;16.976;2022-09-27T18:25:39;6.80;;;3.10;;
59685;SDS011;45554;51.096;16.976;2022-09-27T18:28:13;6.80;;;3.10;;
59685;SDS011;45554;51.096;16.976;2022-09-27T18:30:54;7.20;;;3.00;;
59685;SDS011;45554;51.096;16.976;2022-09-27T18:33:48;8.00;;;4.30;;
59685;SDS011;45554;51.096;16.976;2022-09-27T18:36:18;6.70;;;3.40;;
59685;SDS011;45554;51.096;16.976;2022-09-27T18:38:55;8.40;;;3.50;;
59685;SDS011;45554;51.096;16.976;2022-09-27T18:41:29;6.40;;;3.30;;
59685;SDS011;45554;51.096;16.976;2022-09-27T18:44:00;8.20;;;3.30;;
59685;SDS011;45554;51.096;16.976;2022-09-27T18:46:51;6.90;;;3.60;;